sensor_id;sensor_type;location;lat;lon;timestamp;temperature;humidity
5061;DHT22;2549;52.128;21.068;2022-08-02T00:00:32;23.60;99.90
5061;DHT22;2549;52.128;21.068;2022-08-02T00:02:59;23.50;99.90
5061;DHT22;2549;52.128;21.068;2022-08-02T00:05:26;23.50;99.90
5061;DHT22;2549;52.128;21.068;2022-08-02T00:07:53;23.50;99.90
5061;DHT22;2549;52.128;21.068;2022-08-02T00:10:20;23.50;99.90
5061;DHT22;2549;52.128;21.068;2022-08-02T00:12:47;23.50;99.90
5061;DHT22;2549;52.128;21.068;2022-08-02T00:15:14;23.50;99.90
5061;DHT22;2549;52.128;21.068;2022-08-02T00:17:42;23.50;99.90
5061;DHT22;2549;52.128;21.068;2022-08-02T00:20:10;23.50;99.90
5061;DHT22;2549;52.128;21.068;2022-08-02T00:22:37;23.50;99.90
5061;DHT22;2549;52.128;21.068;2022-08-02T00:25:05;23.40;99.90
5061;DHT22;2549;52.128;21.068;2022-08-02T00:27:32;23.40;99.90
5061;DHT22;2549;52.128;21.068;2022-08-02T00:29:59;23.40;99.90
5061;DHT22;2549;52.128;21.068;2022-08-02T00:32:26;23.40;99.90
5061;DHT22;2549;52.128;21.068;2022-08-02T00:34:53;23.40;99.90
5061;DHT22;2549;52.128;21.068;2022-08-02T00:37:20;23.40;99.90
5061;DHT22;2549;52.128;21.068;2022-08-02T00:39:47;23.40;99.90
5061;DHT22;2549;52.128;21.068;2022-08-02T00:42:14;23.30;99.90
5061;DHT22;2549;52.128;21.068;2022-08-02T00:44:42;23.40;99.90
5061;DHT22;2549;52.128;21.068;2022-08-02T00:47:09;23.40;99.90
5061;DHT22;2549;52.128;21.068;2022-08-02T00:49:36;23.40;99.90
5061;DHT22;2549;52.128;21.068;2022-08-02T00:52:04;23.30;99.90
5061;DHT22;2549;52.128;21.068;2022-08-02T00:54:31;23.30;99.90
5061;DHT22;2549;52.128;21.068;2022-08-02T00:57:01;23.30;99.90
5061;DHT22;2549;52.128;21.068;2022-08-02T00:59:28;23.30;99.90
5061;DHT22;2549;52.128;21.068;2022-08-02T01:01:54;23.30;99.90
5061;DHT22;2549;52.128;21.068;2022-08-02T01:04:25;23.30;99.90
5061;DHT22;2549;52.128;21.068;2022-08-02T01:07:02;23.20;99.90
5061;DHT22;2549;52.128;21.068;2022-08-02T01:09:40;23.20;99.90
5061;DHT22;2549;52.128;21.068;2022-08-02T01:12:08;23.20;99.90
5061;DHT22;2549;52.128;21.068;2022-08-02T01:14:36;23.20;99.90
5061;DHT22;2549;52.128;21.068;2022-08-02T01:19:50;23.20;99.90
5061;DHT22;2549;52.128;21.068;2022-08-02T01:25:56;23.20;99.90
5061;DHT22;2549;52.128;21.068;2022-08-02T01:29:21;23.10;99.90
5061;DHT22;2549;52.128;21.068;2022-08-02T01:32:02;23.10;99.90
5061;DHT22;2549;52.128;21.068;2022-08-02T01:34:36;23.10;99.90
5061;DHT22;2549;52.128;21.068;2022-08-02T01:37:37;23.10;99.90
5061;DHT22;2549;52.128;21.068;2022-08-02T01:40:05;23.10;99.90
5061;DHT22;2549;52.128;21.068;2022-08-02T01:42:36;23.10;99.90
5061;DHT22;2549;52.128;21.068;2022-08-02T01:45:05;23.10;99.90
5061;DHT22;2549;52.128;21.068;2022-08-02T01:47:35;23.10;99.90
5061;DHT22;2549;52.128;21.068;2022-08-02T01:50:05;23.10;99.90
5061;DHT22;2549;52.128;21.068;2022-08-02T01:52:36;23.10;99.90
5061;DHT22;2549;52.128;21.068;2022-08-02T01:55:13;23.10;99.90
5061;DHT22;2549;52.128;21.068;2022-08-02T01:57:48;23.10;99.90
5061;DHT22;2549;52.128;21.068;2022-08-02T02:00:17;23.00;99.90
5061;DHT22;2549;52.128;21.068;2022-08-02T02:02:46;23.00;99.90
5061;DHT22;2549;52.128;21.068;2022-08-02T02:05:17;23.00;99.90
5061;DHT22;2549;52.128;21.068;2022-08-02T02:07:47;23.00;99.90
5061;DHT22;2549;52.128;21.068;2022-08-02T02:10:16;23.00;99.90
5061;DHT22;2549;52.128;21.068;2022-08-02T02:12:47;23.00;99.90
5061;DHT22;2549;52.128;21.068;2022-08-02T02:15:15;22.90;99.90
5061;DHT22;2549;52.128;21.068;2022-08-02T02:17:44;22.90;99.90
5061;DHT22;2549;52.128;21.068;2022-08-02T02:20:32;22.90;99.90
5061;DHT22;2549;52.128;21.068;2022-08-02T02:22:59;22.90;99.90
5061;DHT22;2549;52.128;21.068;2022-08-02T02:25:28;22.80;99.90
5061;DHT22;2549;52.128;21.068;2022-08-02T02:28:16;22.80;99.90
5061;DHT22;2549;52.128;21.068;2022-08-02T02:30:48;22.80;99.90
5061;DHT22;2549;52.128;21.068;2022-08-02T02:33:17;22.70;99.90
5061;DHT22;2549;52.128;21.068;2022-08-02T02:35:45;22.70;99.90
5061;DHT22;2549;52.128;21.068;2022-08-02T02:38:16;22.70;99.90
5061;DHT22;2549;52.128;21.068;2022-08-02T02:40:45;22.70;99.90
5061;DHT22;2549;52.128;21.068;2022-08-02T02:43:13;22.70;99.90
5061;DHT22;2549;52.128;21.068;2022-08-02T02:45:42;22.70;99.90
5061;DHT22;2549;52.128;21.068;2022-08-02T02:48:10;22.60;99.90
5061;DHT22;2549;52.128;21.068;2022-08-02T02:50:41;22.60;99.90
5061;DHT22;2549;52.128;21.068;2022-08-02T02:53:10;22.60;99.90
5061;DHT22;2549;52.128;21.068;2022-08-02T02:55:39;22.60;99.90
5061;DHT22;2549;52.128;21.068;2022-08-02T02:58:27;22.60;99.90
5061;DHT22;2549;52.128;21.068;2022-08-02T03:00:54;22.50;99.90
5061;DHT22;2549;52.128;21.068;2022-08-02T03:03:43;22.50;99.90
5061;DHT22;2549;52.128;21.068;2022-08-02T03:06:10;22.50;99.90
5061;DHT22;2549;52.128;21.068;2022-08-02T03:08:42;22.50;99.90
5061;DHT22;2549;52.128;21.068;2022-08-02T03:11:09;22.50;99.90
5061;DHT22;2549;52.128;21.068;2022-08-02T03:13:37;22.50;99.90
5061;DHT22;2549;52.128;21.068;2022-08-02T03:16:05;22.50;99.90
5061;DHT22;2549;52.128;21.068;2022-08-02T03:18:37;22.50;99.90
5061;DHT22;2549;52.128;21.068;2022-08-02T03:21:11;22.50;99.90
5061;DHT22;2549;52.128;21.068;2022-08-02T03:23:41;22.50;99.90
5061;DHT22;2549;52.128;21.068;2022-08-02T03:26:08;22.50;99.90
5061;DHT22;2549;52.128;21.068;2022-08-02T03:28:36;22.50;99.90
5061;DHT22;2549;52.128;21.068;2022-08-02T03:31:03;22.50;99.90
5061;DHT22;2549;52.128;21.068;2022-08-02T03:33:31;22.50;99.90
5061;DHT22;2549;52.128;21.068;2022-08-02T03:36:02;22.50;99.90
5061;DHT22;2549;52.128;21.068;2022-08-02T03:38:32;22.50;99.90
5061;DHT22;2549;52.128;21.068;2022-08-02T03:41:01;22.50;99.90
5061;DHT22;2549;52.128;21.068;2022-08-02T03:43:30;22.50;99.90
5061;DHT22;2549;52.128;21.068;2022-08-02T03:45:57;22.50;99.90
5061;DHT22;2549;52.128;21.068;2022-08-02T03:48:26;22.60;99.90
5061;DHT22;2549;52.128;21.068;2022-08-02T03:51:01;22.60;99.90
5061;DHT22;2549;52.128;21.068;2022-08-02T03:53:29;22.60;99.90
5061;DHT22;2549;52.128;21.068;2022-08-02T03:55:56;22.60;99.90
5061;DHT22;2549;52.128;21.068;2022-08-02T03:58:24;22.70;99.90
5061;DHT22;2549;52.128;21.068;2022-08-02T04:00:53;22.70;99.90
5061;DHT22;2549;52.128;21.068;2022-08-02T04:03:20;22.60;99.90
5061;DHT22;2549;52.128;21.068;2022-08-02T04:05:47;22.70;99.90
5061;DHT22;2549;52.128;21.068;2022-08-02T04:08:31;22.70;99.90
5061;DHT22;2549;52.128;21.068;2022-08-02T04:11:03;22.70;99.90
5061;DHT22;2549;52.128;21.068;2022-08-02T04:13:48;22.70;99.90
5061;DHT22;2549;52.128;21.068;2022-08-02T04:16:22;22.70;99.90
5061;DHT22;2549;52.128;21.068;2022-08-02T04:18:57;22.70;99.90
5061;DHT22;2549;52.128;21.068;2022-08-02T04:21:30;22.70;99.90
5061;DHT22;2549;52.128;21.068;2022-08-02T04:24:25;22.60;99.90
5061;DHT22;2549;52.128;21.068;2022-08-02T04:26:55;22.70;99.90
5061;DHT22;2549;52.128;21.068;2022-08-02T04:29:32;22.70;99.90
5061;DHT22;2549;52.128;21.068;2022-08-02T04:32:00;22.70;99.90
5061;DHT22;2549;52.128;21.068;2022-08-02T04:34:27;22.70;99.90
5061;DHT22;2549;52.128;21.068;2022-08-02T04:36:54;22.70;99.90
5061;DHT22;2549;52.128;21.068;2022-08-02T04:39:21;22.80;99.90
5061;DHT22;2549;52.128;21.068;2022-08-02T04:41:48;22.80;99.90
5061;DHT22;2549;52.128;21.068;2022-08-02T04:44:17;22.80;99.90
5061;DHT22;2549;52.128;21.068;2022-08-02T04:46:44;22.80;99.90
5061;DHT22;2549;52.128;21.068;2022-08-02T04:49:12;22.80;99.90
5061;DHT22;2549;52.128;21.068;2022-08-02T04:51:40;22.90;99.90
5061;DHT22;2549;52.128;21.068;2022-08-02T04:54:08;22.90;99.90
5061;DHT22;2549;52.128;21.068;2022-08-02T04:56:39;22.90;99.90
5061;DHT22;2549;52.128;21.068;2022-08-02T04:59:06;22.90;99.90
5061;DHT22;2549;52.128;21.068;2022-08-02T05:01:33;23.00;99.90
5061;DHT22;2549;52.128;21.068;2022-08-02T05:04:05;23.00;99.90
5061;DHT22;2549;52.128;21.068;2022-08-02T05:06:32;23.00;99.90
5061;DHT22;2549;52.128;21.068;2022-08-02T05:08:59;23.00;99.90
5061;DHT22;2549;52.128;21.068;2022-08-02T05:11:26;23.00;99.90
5061;DHT22;2549;52.128;21.068;2022-08-02T05:14:03;23.00;99.90
5061;DHT22;2549;52.128;21.068;2022-08-02T05:16:30;23.00;99.90
5061;DHT22;2549;52.128;21.068;2022-08-02T05:19:01;23.00;99.90
5061;DHT22;2549;52.128;21.068;2022-08-02T05:21:29;23.00;99.90
5061;DHT22;2549;52.128;21.068;2022-08-02T05:23:57;23.00;99.90
5061;DHT22;2549;52.128;21.068;2022-08-02T05:26:24;23.00;99.90
5061;DHT22;2549;52.128;21.068;2022-08-02T05:28:52;23.10;99.90
5061;DHT22;2549;52.128;21.068;2022-08-02T05:31:18;23.10;99.90
5061;DHT22;2549;52.128;21.068;2022-08-02T05:33:45;23.20;99.90
5061;DHT22;2549;52.128;21.068;2022-08-02T05:36:12;23.20;99.90
5061;DHT22;2549;52.128;21.068;2022-08-02T05:38:41;23.20;99.90
5061;DHT22;2549;52.128;21.068;2022-08-02T05:41:18;23.20;99.90
5061;DHT22;2549;52.128;21.068;2022-08-02T05:43:46;23.20;99.90
5061;DHT22;2549;52.128;21.068;2022-08-02T05:46:13;23.20;99.90
5061;DHT22;2549;52.128;21.068;2022-08-02T05:48:40;23.20;99.90
5061;DHT22;2549;52.128;21.068;2022-08-02T05:51:12;23.30;99.90
5061;DHT22;2549;52.128;21.068;2022-08-02T05:53:59;23.30;99.90
5061;DHT22;2549;52.128;21.068;2022-08-02T05:59:35;23.30;99.90
5061;DHT22;2549;52.128;21.068;2022-08-02T06:05:02;23.40;99.90
5061;DHT22;2549;52.128;21.068;2022-08-02T06:07:34;23.50;99.90
5061;DHT22;2549;52.128;21.068;2022-08-02T06:10:05;23.40;99.90
5061;DHT22;2549;52.128;21.068;2022-08-02T06:15:14;23.40;99.90
5061;DHT22;2549;52.128;21.068;2022-08-02T06:17:41;23.50;99.90
5061;DHT22;2549;52.128;21.068;2022-08-02T06:20:12;23.50;99.90
5061;DHT22;2549;52.128;21.068;2022-08-02T06:22:41;23.50;99.90
5061;DHT22;2549;52.128;21.068;2022-08-02T06:25:10;23.40;99.90
5061;DHT22;2549;52.128;21.068;2022-08-02T06:27:59;23.50;99.90
5061;DHT22;2549;52.128;21.068;2022-08-02T06:30:27;23.50;99.90
5061;DHT22;2549;52.128;21.068;2022-08-02T06:32:54;23.60;99.90
5061;DHT22;2549;52.128;21.068;2022-08-02T06:35:24;23.70;99.90
5061;DHT22;2549;52.128;21.068;2022-08-02T06:37:59;23.70;99.90
5061;DHT22;2549;52.128;21.068;2022-08-02T06:40:56;23.80;99.90
5061;DHT22;2549;52.128;21.068;2022-08-02T06:43:49;23.80;99.90
5061;DHT22;2549;52.128;21.068;2022-08-02T06:46:19;23.80;99.90
5061;DHT22;2549;52.128;21.068;2022-08-02T06:49:06;23.90;99.90
5061;DHT22;2549;52.128;21.068;2022-08-02T06:51:34;24.00;99.90
5061;DHT22;2549;52.128;21.068;2022-08-02T06:54:01;24.00;99.90
5061;DHT22;2549;52.128;21.068;2022-08-02T06:56:27;24.10;99.90
5061;DHT22;2549;52.128;21.068;2022-08-02T06:58:54;24.10;99.90
5061;DHT22;2549;52.128;21.068;2022-08-02T07:01:21;24.10;99.90
5061;DHT22;2549;52.128;21.068;2022-08-02T07:03:48;24.30;99.90
5061;DHT22;2549;52.128;21.068;2022-08-02T07:06:15;24.30;99.90
5061;DHT22;2549;52.128;21.068;2022-08-02T07:08:42;24.20;99.90
5061;DHT22;2549;52.128;21.068;2022-08-02T07:11:29;24.20;99.90
5061;DHT22;2549;52.128;21.068;2022-08-02T07:13:56;24.30;99.90
5061;DHT22;2549;52.128;21.068;2022-08-02T07:16:23;24.30;99.90
5061;DHT22;2549;52.128;21.068;2022-08-02T07:18:50;24.40;99.90
5061;DHT22;2549;52.128;21.068;2022-08-02T07:21:17;24.40;99.90
5061;DHT22;2549;52.128;21.068;2022-08-02T07:24:04;24.50;99.90
5061;DHT22;2549;52.128;21.068;2022-08-02T07:26:31;24.50;99.30
5061;DHT22;2549;52.128;21.068;2022-08-02T07:28:58;24.50;98.20
5061;DHT22;2549;52.128;21.068;2022-08-02T07:31:24;24.50;97.90
5061;DHT22;2549;52.128;21.068;2022-08-02T07:33:52;24.50;98.20
5061;DHT22;2549;52.128;21.068;2022-08-02T07:36:19;24.60;98.70
5061;DHT22;2549;52.128;21.068;2022-08-02T07:38:48;24.60;98.80
5061;DHT22;2549;52.128;21.068;2022-08-02T07:41:16;24.60;98.80
5061;DHT22;2549;52.128;21.068;2022-08-02T07:43:43;24.60;98.10
5061;DHT22;2549;52.128;21.068;2022-08-02T07:46:10;24.70;97.80
5061;DHT22;2549;52.128;21.068;2022-08-02T07:48:37;24.60;97.30
5061;DHT22;2549;52.128;21.068;2022-08-02T07:51:04;24.70;97.20
5061;DHT22;2549;52.128;21.068;2022-08-02T07:53:31;24.70;96.60
5061;DHT22;2549;52.128;21.068;2022-08-02T07:56:17;24.70;96.60
5061;DHT22;2549;52.128;21.068;2022-08-02T07:58:44;24.70;96.50
5061;DHT22;2549;52.128;21.068;2022-08-02T08:01:11;24.80;96.50
5061;DHT22;2549;52.128;21.068;2022-08-02T08:03:38;24.80;96.10
5061;DHT22;2549;52.128;21.068;2022-08-02T08:06:05;24.80;96.20
5061;DHT22;2549;52.128;21.068;2022-08-02T08:08:33;24.80;96.40
5061;DHT22;2549;52.128;21.068;2022-08-02T08:11:00;24.80;96.00
5061;DHT22;2549;52.128;21.068;2022-08-02T08:13:28;24.80;95.40
5061;DHT22;2549;52.128;21.068;2022-08-02T08:15:55;24.80;95.20
5061;DHT22;2549;52.128;21.068;2022-08-02T08:18:21;24.90;95.30
5061;DHT22;2549;52.128;21.068;2022-08-02T08:20:49;24.90;95.90
5061;DHT22;2549;52.128;21.068;2022-08-02T08:23:17;24.90;96.20
5061;DHT22;2549;52.128;21.068;2022-08-02T08:25:44;25.00;96.80
5061;DHT22;2549;52.128;21.068;2022-08-02T08:28:11;25.00;96.50
5061;DHT22;2549;52.128;21.068;2022-08-02T08:30:39;25.00;95.40
5061;DHT22;2549;52.128;21.068;2022-08-02T08:33:08;25.00;95.50
5061;DHT22;2549;52.128;21.068;2022-08-02T08:35:35;25.10;95.70
5061;DHT22;2549;52.128;21.068;2022-08-02T08:38:02;25.10;95.90
5061;DHT22;2549;52.128;21.068;2022-08-02T08:40:33;25.10;95.40
5061;DHT22;2549;52.128;21.068;2022-08-02T08:43:00;25.10;95.20
5061;DHT22;2549;52.128;21.068;2022-08-02T08:45:27;25.10;94.90
5061;DHT22;2549;52.128;21.068;2022-08-02T08:48:06;25.10;95.40
5061;DHT22;2549;52.128;21.068;2022-08-02T08:50:38;25.10;95.10
5061;DHT22;2549;52.128;21.068;2022-08-02T08:53:08;25.20;95.00
5061;DHT22;2549;52.128;21.068;2022-08-02T08:55:39;25.20;94.40
5061;DHT22;2549;52.128;21.068;2022-08-02T08:58:06;25.20;94.20
5061;DHT22;2549;52.128;21.068;2022-08-02T09:00:34;25.20;93.90
5061;DHT22;2549;52.128;21.068;2022-08-02T09:03:06;25.30;93.60
5061;DHT22;2549;52.128;21.068;2022-08-02T09:05:38;25.30;93.90
5061;DHT22;2549;52.128;21.068;2022-08-02T09:08:06;25.30;94.30
5061;DHT22;2549;52.128;21.068;2022-08-02T09:10:44;25.30;94.20
5061;DHT22;2549;52.128;21.068;2022-08-02T09:13:25;25.30;94.10
5061;DHT22;2549;52.128;21.068;2022-08-02T09:16:11;25.30;93.80
5061;DHT22;2549;52.128;21.068;2022-08-02T09:18:42;25.30;93.60
5061;DHT22;2549;52.128;21.068;2022-08-02T09:21:14;25.40;93.50
5061;DHT22;2549;52.128;21.068;2022-08-02T09:23:45;25.40;94.00
5061;DHT22;2549;52.128;21.068;2022-08-02T09:26:18;25.40;94.50
5061;DHT22;2549;52.128;21.068;2022-08-02T09:28:50;25.50;94.80
5061;DHT22;2549;52.128;21.068;2022-08-02T09:31:23;25.40;93.70
5061;DHT22;2549;52.128;21.068;2022-08-02T09:33:52;25.50;94.30
5061;DHT22;2549;52.128;21.068;2022-08-02T09:36:21;25.50;94.60
5061;DHT22;2549;52.128;21.068;2022-08-02T09:39:02;25.50;94.90
5061;DHT22;2549;52.128;21.068;2022-08-02T09:41:34;25.50;95.10
5061;DHT22;2549;52.128;21.068;2022-08-02T09:44:04;25.50;95.30
5061;DHT22;2549;52.128;21.068;2022-08-02T09:46:45;25.50;95.10
5061;DHT22;2549;52.128;21.068;2022-08-02T09:49:17;25.60;94.00
5061;DHT22;2549;52.128;21.068;2022-08-02T09:54:21;25.70;93.70
5061;DHT22;2549;52.128;21.068;2022-08-02T09:59:22;25.80;92.70
5061;DHT22;2549;52.128;21.068;2022-08-02T10:01:53;25.80;92.90
5061;DHT22;2549;52.128;21.068;2022-08-02T10:04:31;25.90;92.90
5061;DHT22;2549;52.128;21.068;2022-08-02T10:07:18;25.90;92.00
5061;DHT22;2549;52.128;21.068;2022-08-02T10:09:49;25.90;92.20
5061;DHT22;2549;52.128;21.068;2022-08-02T10:12:17;26.00;92.70
5061;DHT22;2549;52.128;21.068;2022-08-02T10:14:51;26.10;92.80
5061;DHT22;2549;52.128;21.068;2022-08-02T10:20:22;26.20;92.30
5061;DHT22;2549;52.128;21.068;2022-08-02T10:22:50;26.20;92.60
5061;DHT22;2549;52.128;21.068;2022-08-02T10:25:23;26.20;93.00
5061;DHT22;2549;52.128;21.068;2022-08-02T10:27:50;26.20;93.70
5061;DHT22;2549;52.128;21.068;2022-08-02T10:30:31;26.10;93.60
5061;DHT22;2549;52.128;21.068;2022-08-02T10:33:05;26.10;93.70
5061;DHT22;2549;52.128;21.068;2022-08-02T10:35:37;26.10;92.70
5061;DHT22;2549;52.128;21.068;2022-08-02T10:38:07;26.10;93.00
5061;DHT22;2549;52.128;21.068;2022-08-02T10:41:01;26.20;93.50
5061;DHT22;2549;52.128;21.068;2022-08-02T10:51:58;26.20;92.10
5061;DHT22;2549;52.128;21.068;2022-08-02T10:54:43;26.20;92.70
5061;DHT22;2549;52.128;21.068;2022-08-02T10:57:18;26.20;93.10
5061;DHT22;2549;52.128;21.068;2022-08-02T10:59:49;26.20;91.90
5061;DHT22;2549;52.128;21.068;2022-08-02T11:02:42;26.20;91.60
5061;DHT22;2549;52.128;21.068;2022-08-02T11:07:48;26.40;92.60
5061;DHT22;2549;52.128;21.068;2022-08-02T11:15:27;26.50;90.90
5061;DHT22;2549;52.128;21.068;2022-08-02T11:17:56;26.50;91.10
5061;DHT22;2549;52.128;21.068;2022-08-02T11:20:27;26.60;90.70
5061;DHT22;2549;52.128;21.068;2022-08-02T11:22:57;26.60;90.80
5061;DHT22;2549;52.128;21.068;2022-08-02T11:25:41;26.70;90.60
5061;DHT22;2549;52.128;21.068;2022-08-02T11:28:29;26.70;90.90
5061;DHT22;2549;52.128;21.068;2022-08-02T11:30:58;26.70;91.50
5061;DHT22;2549;52.128;21.068;2022-08-02T11:33:32;26.60;91.80
5061;DHT22;2549;52.128;21.068;2022-08-02T11:36:04;26.70;90.60
5061;DHT22;2549;52.128;21.068;2022-08-02T11:38:32;26.70;90.90
5061;DHT22;2549;52.128;21.068;2022-08-02T11:40:59;26.70;90.20
5061;DHT22;2549;52.128;21.068;2022-08-02T11:43:36;26.70;89.80
5061;DHT22;2549;52.128;21.068;2022-08-02T11:46:03;26.80;89.40
5061;DHT22;2549;52.128;21.068;2022-08-02T11:48:32;26.90;89.80
5061;DHT22;2549;52.128;21.068;2022-08-02T11:51:09;26.80;90.10
5061;DHT22;2549;52.128;21.068;2022-08-02T11:53:47;26.90;90.50
5061;DHT22;2549;52.128;21.068;2022-08-02T11:56:16;26.80;90.90
5061;DHT22;2549;52.128;21.068;2022-08-02T12:01:29;26.90;90.80
5061;DHT22;2549;52.128;21.068;2022-08-02T12:03:57;26.90;90.70
5061;DHT22;2549;52.128;21.068;2022-08-02T12:06:27;26.90;90.30
5061;DHT22;2549;52.128;21.068;2022-08-02T12:09:04;27.00;90.00
5061;DHT22;2549;52.128;21.068;2022-08-02T12:11:50;27.10;89.60
5061;DHT22;2549;52.128;21.068;2022-08-02T12:14:17;27.10;89.30
5061;DHT22;2549;52.128;21.068;2022-08-02T12:16:45;27.20;88.30
5061;DHT22;2549;52.128;21.068;2022-08-02T12:19:33;27.30;88.60
5061;DHT22;2549;52.128;21.068;2022-08-02T12:24:36;27.30;90.30
5061;DHT22;2549;52.128;21.068;2022-08-02T12:27:03;27.20;90.60
5061;DHT22;2549;52.128;21.068;2022-08-02T12:29:37;27.20;90.10
5061;DHT22;2549;52.128;21.068;2022-08-02T12:32:25;27.30;89.30
5061;DHT22;2549;52.128;21.068;2022-08-02T12:35:07;27.40;89.40
5061;DHT22;2549;52.128;21.068;2022-08-02T12:37:40;27.40;90.20
5061;DHT22;2549;52.128;21.068;2022-08-02T12:40:30;27.40;89.70
5061;DHT22;2549;52.128;21.068;2022-08-02T12:43:17;27.50;89.50
5061;DHT22;2549;52.128;21.068;2022-08-02T12:45:54;27.50;89.60
5061;DHT22;2549;52.128;21.068;2022-08-02T12:48:36;27.60;88.30
5061;DHT22;2549;52.128;21.068;2022-08-02T12:54:29;27.70;87.50
5061;DHT22;2549;52.128;21.068;2022-08-02T12:57:13;27.70;87.70
5061;DHT22;2549;52.128;21.068;2022-08-02T12:59:54;27.70;88.70
5061;DHT22;2549;52.128;21.068;2022-08-02T13:02:21;27.70;88.60
5061;DHT22;2549;52.128;21.068;2022-08-02T13:04:52;27.60;88.10
5061;DHT22;2549;52.128;21.068;2022-08-02T13:07:19;27.70;88.20
5061;DHT22;2549;52.128;21.068;2022-08-02T13:09:47;27.70;89.10
5061;DHT22;2549;52.128;21.068;2022-08-02T13:12:34;27.70;89.20
5061;DHT22;2549;52.128;21.068;2022-08-02T13:15:09;27.80;89.50
5061;DHT22;2549;52.128;21.068;2022-08-02T13:17:59;27.70;90.10
5061;DHT22;2549;52.128;21.068;2022-08-02T13:20:31;27.70;89.40
5061;DHT22;2549;52.128;21.068;2022-08-02T13:23:08;27.70;89.60
5061;DHT22;2549;52.128;21.068;2022-08-02T13:25:49;27.70;90.10
5061;DHT22;2549;52.128;21.068;2022-08-02T13:28:21;27.60;89.10
5061;DHT22;2549;52.128;21.068;2022-08-02T13:31:02;27.60;89.50
5061;DHT22;2549;52.128;21.068;2022-08-02T13:33:57;27.60;90.30
5061;DHT22;2549;52.128;21.068;2022-08-02T13:36:32;27.60;91.10
5061;DHT22;2549;52.128;21.068;2022-08-02T13:39:08;27.60;90.50
5061;DHT22;2549;52.128;21.068;2022-08-02T13:41:37;27.70;90.10
5061;DHT22;2549;52.128;21.068;2022-08-02T13:44:06;27.70;88.30
5061;DHT22;2549;52.128;21.068;2022-08-02T13:46:36;27.80;88.60
5061;DHT22;2549;52.128;21.068;2022-08-02T13:49:14;27.80;87.60
5061;DHT22;2549;52.128;21.068;2022-08-02T13:51:51;27.90;88.00
5061;DHT22;2549;52.128;21.068;2022-08-02T13:54:22;28.00;88.00
5061;DHT22;2549;52.128;21.068;2022-08-02T13:56:49;27.90;88.40
5061;DHT22;2549;52.128;21.068;2022-08-02T13:59:16;27.90;87.40
5061;DHT22;2549;52.128;21.068;2022-08-02T14:02:03;27.90;88.70
5061;DHT22;2549;52.128;21.068;2022-08-02T14:04:30;27.80;89.20
5061;DHT22;2549;52.128;21.068;2022-08-02T14:06:57;27.80;90.00
5061;DHT22;2549;52.128;21.068;2022-08-02T14:09:25;27.80;89.20
5061;DHT22;2549;52.128;21.068;2022-08-02T14:11:52;27.80;88.50
5061;DHT22;2549;52.128;21.068;2022-08-02T14:14:19;27.80;89.10
5061;DHT22;2549;52.128;21.068;2022-08-02T14:16:46;27.80;90.30
5061;DHT22;2549;52.128;21.068;2022-08-02T14:19:13;27.70;89.90
5061;DHT22;2549;52.128;21.068;2022-08-02T14:21:43;27.70;89.70
5061;DHT22;2549;52.128;21.068;2022-08-02T14:24:13;27.70;89.60
5061;DHT22;2549;52.128;21.068;2022-08-02T14:26:40;27.70;88.50
5061;DHT22;2549;52.128;21.068;2022-08-02T14:29:07;27.80;88.80
5061;DHT22;2549;52.128;21.068;2022-08-02T14:31:34;27.80;88.80
5061;DHT22;2549;52.128;21.068;2022-08-02T14:34:09;27.70;89.20
5061;DHT22;2549;52.128;21.068;2022-08-02T14:36:36;27.70;89.00
5061;DHT22;2549;52.128;21.068;2022-08-02T14:39:04;27.70;88.70
5061;DHT22;2549;52.128;21.068;2022-08-02T14:41:31;27.70;89.40
5061;DHT22;2549;52.128;21.068;2022-08-02T14:44:19;27.70;89.10
5061;DHT22;2549;52.128;21.068;2022-08-02T14:46:46;27.70;89.10
5061;DHT22;2549;52.128;21.068;2022-08-02T14:49:17;27.80;90.20
5061;DHT22;2549;52.128;21.068;2022-08-02T14:51:53;27.90;89.50
5061;DHT22;2549;52.128;21.068;2022-08-02T14:54:21;27.90;88.60
5061;DHT22;2549;52.128;21.068;2022-08-02T14:57:01;27.90;89.10
5061;DHT22;2549;52.128;21.068;2022-08-02T14:59:29;27.90;89.00
5061;DHT22;2549;52.128;21.068;2022-08-02T15:01:57;27.90;89.30
5061;DHT22;2549;52.128;21.068;2022-08-02T15:04:24;27.90;87.70
5061;DHT22;2549;52.128;21.068;2022-08-02T15:06:52;28.00;87.70
5061;DHT22;2549;52.128;21.068;2022-08-02T15:09:20;27.90;88.00
5061;DHT22;2549;52.128;21.068;2022-08-02T15:11:47;27.90;88.20
5061;DHT22;2549;52.128;21.068;2022-08-02T15:14:16;27.90;88.80
5061;DHT22;2549;52.128;21.068;2022-08-02T15:16:55;27.90;89.10
5061;DHT22;2549;52.128;21.068;2022-08-02T15:19:25;27.90;89.60
5061;DHT22;2549;52.128;21.068;2022-08-02T15:22:12;27.90;89.30
5061;DHT22;2549;52.128;21.068;2022-08-02T15:24:43;27.80;90.10
5061;DHT22;2549;52.128;21.068;2022-08-02T15:27:10;27.80;90.20
5061;DHT22;2549;52.128;21.068;2022-08-02T15:29:40;27.70;89.00
5061;DHT22;2549;52.128;21.068;2022-08-02T15:32:07;27.70;89.30
5061;DHT22;2549;52.128;21.068;2022-08-02T15:34:34;27.70;89.80
5061;DHT22;2549;52.128;21.068;2022-08-02T15:37:01;27.70;90.20
5061;DHT22;2549;52.128;21.068;2022-08-02T15:39:29;27.70;90.20
5061;DHT22;2549;52.128;21.068;2022-08-02T15:41:56;27.70;90.20
5061;DHT22;2549;52.128;21.068;2022-08-02T15:44:23;27.70;89.10
5061;DHT22;2549;52.128;21.068;2022-08-02T15:46:51;27.70;88.60
5061;DHT22;2549;52.128;21.068;2022-08-02T15:49:19;27.70;88.40
5061;DHT22;2549;52.128;21.068;2022-08-02T15:51:50;27.80;88.70
5061;DHT22;2549;52.128;21.068;2022-08-02T15:54:18;27.80;88.50
5061;DHT22;2549;52.128;21.068;2022-08-02T15:56:45;27.80;88.40
5061;DHT22;2549;52.128;21.068;2022-08-02T15:59:12;27.80;88.20
5061;DHT22;2549;52.128;21.068;2022-08-02T16:01:39;27.90;88.40
5061;DHT22;2549;52.128;21.068;2022-08-02T16:04:13;27.90;87.40
5061;DHT22;2549;52.128;21.068;2022-08-02T16:06:40;27.90;87.20
5061;DHT22;2549;52.128;21.068;2022-08-02T16:09:07;28.00;87.10
5061;DHT22;2549;52.128;21.068;2022-08-02T16:11:34;28.00;86.80
5061;DHT22;2549;52.128;21.068;2022-08-02T16:14:02;28.00;87.10
5061;DHT22;2549;52.128;21.068;2022-08-02T16:16:31;28.00;87.60
5061;DHT22;2549;52.128;21.068;2022-08-02T16:18:58;28.10;87.80
5061;DHT22;2549;52.128;21.068;2022-08-02T16:21:46;28.00;87.60
5061;DHT22;2549;52.128;21.068;2022-08-02T16:24:13;28.00;87.90
5061;DHT22;2549;52.128;21.068;2022-08-02T16:26:41;28.00;88.40
5061;DHT22;2549;52.128;21.068;2022-08-02T16:29:08;28.00;88.40
5061;DHT22;2549;52.128;21.068;2022-08-02T16:31:35;28.00;88.50
5061;DHT22;2549;52.128;21.068;2022-08-02T16:34:08;28.00;88.20
5061;DHT22;2549;52.128;21.068;2022-08-02T16:36:35;28.00;88.20
5061;DHT22;2549;52.128;21.068;2022-08-02T16:39:03;28.00;88.50
5061;DHT22;2549;52.128;21.068;2022-08-02T16:41:30;28.00;89.50
5061;DHT22;2549;52.128;21.068;2022-08-02T16:44:18;28.00;89.60
5061;DHT22;2549;52.128;21.068;2022-08-02T16:46:56;28.00;89.10
5061;DHT22;2549;52.128;21.068;2022-08-02T16:49:38;28.00;88.40
5061;DHT22;2549;52.128;21.068;2022-08-02T16:52:25;28.00;88.20
5061;DHT22;2549;52.128;21.068;2022-08-02T16:54:52;28.10;89.20
5061;DHT22;2549;52.128;21.068;2022-08-02T16:57:19;28.00;90.30
5061;DHT22;2549;52.128;21.068;2022-08-02T16:59:47;28.00;90.00